x

9410230 - La Jolla, Ca (ljac1) Weather Station

5:30 - Sun 22nd Jan 2017 All times are PST. -8 hours from GMT.

  • Wind
    9mph, 11mph gusts
  • Sea Temp 59°f
  • Aire Temp 56°f
  • Sea Pressure 1019mb
  • 9410230 - La Jolla, Ca
  • 9410230 - La Jolla, Ca

More Historic Weather Station data

Upgrade to MSW Pro to gain access to the past 30 days of data for over 8000 Wavebouys and Weather Stations around the globe.

Join Pro

Comparision Forecast

View Surf forecast
   
dom 01/22 5:30 9 11 mph 1019mb 59f 56f
5:24 9 11 mph 1018.8mb 59f 56f
5:18 11 15 mph 1018.4mb 59f 56f
5:12 9 13 mph 1018.5mb 59f 56f
5:06 9 11 mph 1018.9mb 59f 56f
5:00 8 11 mph 1019mb 59f 56f
4:54 7 10 mph 1019.1mb 59f 57f
4:48 7 10 mph 1019mb 59f 57f
4:42 6 9 mph 1019.1mb 59f 57f
4:36 7 9 mph 1019.3mb 59f 57f
4:30 6 10 mph 1019.3mb 59f 57f
4:24 7 10 mph 1019.2mb 59f 56f
4:18 7 11 mph 1019.3mb 59f 56f
4:12 8 11 mph 1019mb 59f 56f
4:06 8 11 mph 1019.1mb 59f 56f
4:00 8 10 mph 1019.3mb 59f 56f
3:54 7 10 mph 1019.3mb 59f 56f
3:48 6 8 mph 1019.4mb 59f 55f
3:42 3 11 mph 1019.5mb 59f 56f
3:36 9 13 mph 1019.4mb 59f 56f
3:30 10 13 mph 1019.2mb 59f 55f
3:24 9 13 mph 1019.3mb 59f 55f
3:18 9 13 mph 1019.3mb 59f 55f
3:12 7 13 mph 1019.3mb 59f 55f
3:06 9 13 mph 1019.3mb 59f 55f
3:00 10 14 mph 1019.4mb 59f 55f
2:54 10 13 mph 1019.6mb 59f 55f
2:48 10 14 mph 1019.5mb 59f 55f
2:42 11 14 mph 1019.5mb 59f 55f
2:36 9 14 mph 1019.7mb 59f 55f
2:30 9 13 mph 1019.8mb 59f 55f
2:24 7 13 mph 1019.8mb 59f 55f
2:18 9 14 mph 1019.8mb 59f 55f
2:12 10 15 mph 1019.7mb 59f 55f
2:06 11 15 mph 1019.4mb 59f 56f
2:00 11 14 mph 1019.8mb 59f 55f
1:54 11 15 mph 1019.7mb 59f 55f
1:48 11 15 mph 1019.7mb 59f 55f
1:42 10 14 mph 1019.8mb 59f 55f
1:36 11 14 mph 1019.7mb 59f 55f
1:30 9 13 mph 1019.7mb 59f 55f
1:24 11 14 mph 1019.9mb 59f 55f
1:18 8 13 mph 1020mb 59f 55f
1:12 10 15 mph 1019.8mb 59f 55f
1:06 10 13 mph 1019.9mb 59f 55f
1:00 10 13 mph 1020.2mb 59f 54f
12:54 9 13 mph 1020mb 59f 54f
12:48 9 14 mph 1020.1mb 59f 54f
12:42 13 15 mph 1019.9mb 59f 54f
12:36 11 15 mph 1020.1mb 59f 54f
12:30 11 14 mph 1020.4mb 59f 55f
12:24 11 14 mph 1020.5mb 59f 55f
12:18 11 14 mph 1020.4mb 59f 55f
12:12 10 14 mph 1020.5mb 59f 55f
sáb 01/21 8:30 18 22 mph 1012.3mb 58f 59f
8:24 18 22 mph 1011.9mb 59f 59f
8:18 21 23 mph 1011.8mb 59f 59f
8:12 17 24 mph 1011.6mb 58f 59f
8:06 20 23 mph 1011.5mb 58f 59f
8:00 20 25 mph 1011.4mb 58f 59f
7:54 18 23 mph 1011.5mb 58f 59f
7:48 21 25 mph 1011.1mb 58f 59f
7:42 17 24 mph 1011.2mb 59f 59f
7:36 22 24 mph 1011mb 58f 59f
7:30 18 24 mph 1010.9mb 59f 59f
7:24 21 26 mph 1010.8mb 59f 59f
7:18 21 24 mph 1010.8mb 59f 58f
7:12 20 25 mph 1010.4mb 59f 58f
7:06 22 26 mph 1010.3mb 59f 59f
7:00 20 25 mph 1010mb 59f 59f
6:54 20 25 mph 1009.9mb 59f 59f
6:48 22 25 mph 1009.6mb 59f 59f
6:42 22 25 mph 1009.7mb 59f 59f
6:36 22 26 mph 1009.7mb 59f 59f
6:30 21 25 mph 1009.5mb 59f 59f
6:24 21 25 mph 1009.5mb 59f 59f
6:18 20 25 mph 1009.3mb 59f 58f
6:12 17 23 mph 1009.1mb 59f 59f
6:06 21 26 mph 1008.9mb 59f 58f
6:00 21 24 mph 1008.7mb 59f 58f
5:54 22 29 mph 1008.6mb 59f 58f
5:48 22 24 mph 1008.5mb 59f 58f
5:42 22 25 mph 1008.2mb 59f 58f
5:36 24 29 mph 1008.1mb 59f 58f
5:30 22 25 mph 1008.2mb 59f 59f
5:24 22 29 mph 1008.1mb 59f 59f
5:18 25 29 mph 1008.1mb 59f 59f
5:12 22 28 mph 1008.1mb 59f 59f
5:06 24 28 mph 1008.1mb 59f 59f
5:00 23 29 mph 1008mb 59f 59f
4:54 25 29 mph 1008.1mb 59f 59f
4:48 24 29 mph 1008mb 59f 59f
4:42 22 28 mph 1008mb 59f 59f
4:36 25 29 mph 1007.8mb 59f 58f
4:30 22 29 mph 1007.8mb 59f 59f
4:24 23 28 mph 1007.5mb 59f 58f
4:18 22 28 mph 1007.4mb 59f 58f
4:12 23 31 mph 1007.1mb 59f 58f
4:06 24 28 mph 1007mb 59f 58f
4:00 21 23 mph 1006.8mb 59f 58f
3:54 18 23 mph 1006.8mb 59f 58f
3:48 20 24 mph 1006.7mb 59f 58f
3:42 18 25 mph 1006.7mb 59f 58f
3:36 17 24 mph 1006.6mb 59f 58f
3:30 20 24 mph 1006.5mb 59f 58f
3:24 20 24 mph 1006.2mb 59f 58f
3:12 18 22 mph 1005.8mb 59f 58f
3:06 20 25 mph 1005.9mb 59f 58f
3:00 17 25 mph 1005.9mb 59f 58f
2:54 22 26 mph 1006mb 59f 58f
2:48 24 28 mph 1006mb 59f 58f
2:42 22 26 mph 1005.9mb 59f 58f
2:36 21 28 mph 1005.9mb 59f 58f
2:30 24 28 mph 1005.8mb 59f 59f
2:24 22 26 mph 1005.8mb 59f 59f
2:18 21 26 mph 1005.6mb 59f 59f
2:12 22 26 mph 1005.6mb 59f 59f
2:06 24 28 mph 1005.5mb 59f 59f
2:00 21 25 mph 1005.4mb 59f 59f
1:54 22 26 mph 1005.2mb 59f 59f
1:48 22 26 mph 1005.2mb 59f 59f
1:42 24 30 mph 1005.1mb 59f 59f
1:36 25 31 mph 1004.9mb 59f 59f
1:30 26 31 mph 1004.8mb 59f 59f
1:24 23 29 mph 1004.8mb 59f 59f
1:18 22 29 mph 1004.8mb 59f 59f
1:12 21 28 mph 1004.7mb 59f 59f
1:06 21 26 mph 1004.5mb 59f 59f
1:00 21 23 mph 1004.4mb 59f 59f
12:54 17 25 mph 1004.3mb 59f 59f
12:48 20 29 mph 1004.3mb 59f 59f
12:42 23 28 mph 1004.3mb 59f 59f
12:36 20 25 mph 1004.2mb 59f 59f
12:30 22 26 mph 1004.3mb 59f 59f
12:24 24 29 mph 1004.2mb 59f 59f
12:18 22 26 mph 1004.2mb 59f 59f
12:12 20 23 mph 1004.1mb 59f 59f
12:06 21 25 mph 1004.2mb 59f 59f
12:00 21 24 mph 1004.1mb 59f 59f
vie 01/20 11:54 20 25 mph 1004.1mb 59f 59f
11:48 23 28 mph 1004.1mb 59f 59f
11:42 22 26 mph 1004.1mb 59f 59f
11:36 23 30 mph 1004.1mb 59f 59f
11:30 23 31 mph 1004.1mb 59f 60f
11:24 24 29 mph 1004.1mb 59f 60f
11:18 23 29 mph 1004.1mb 59f 60f
11:12 21 28 mph 1004.1mb 59f 60f
11:06 22 30 mph 1004mb 59f 60f
11:00 24 29 mph 1004.1mb 59f 60f
10:54 25 30 mph 1004mb 59f 60f
10:48 24 29 mph 1003.9mb 59f 60f
10:42 25 29 mph 1003.9mb 59f 60f
10:36 20 25 mph 1003.7mb 59f 60f
10:30 18 28 mph 1003.7mb 59f 60f
10:24 24 28 mph 1003.8mb 59f 60f
10:18 23 29 mph 1003.7mb 59f 60f
10:12 23 28 mph 1003.7mb 59f 60f
10:06 23 29 mph 1003.6mb 59f 60f
10:00 23 28 mph 1003.5mb 59f 60f
9:54 24 29 mph 1003.3mb 59f 60f
9:48 25 29 mph 1003.3mb 59f -
9:42 25 29 mph 1003.2mb 59f -
9:36 23 25 mph 1003.2mb 59f -
9:30 17 22 mph 1003.1mb 59f 60f
9:24 17 24 mph 1003.1mb 59f 60f
9:18 22 25 mph 1003mb 59f 60f
9:12 21 24 mph 1002.8mb 59f 60f
9:06 20 25 mph 1002.7mb 59f 60f
9:00 22 26 mph 1002.7mb 59f 60f
8:54 22 30 mph 1002.8mb 59f 60f
8:48 23 28 mph 1002.9mb 59f 60f
8:42 24 28 mph 1002.7mb 59f 60f
8:36 20 24 mph 1002.4mb 59f 60f
8:30 17 23 mph 1002.5mb 59f 60f
8:24 14 18 mph 1002.4mb 59f 60f
8:18 16 21 mph 1002.4mb 59f 60f
8:12 17 21 mph 1002.3mb 59f 60f
8:06 16 18 mph 1002.3mb 59f 60f
8:00 16 22 mph 1002.4mb 59f 60f
7:54 18 23 mph 1002.4mb 59f 60f
7:48 21 24 mph 1002.4mb 59f 60f
7:42 18 23 mph 1002.4mb 59f 60f
7:36 18 24 mph 1002.4mb 59f 60f
7:30 22 25 mph 1002.3mb 59f 60f
7:24 23 30 mph 1002.3mb 59f 60f
7:18 21 25 mph 1002.3mb 59f 60f
7:12 21 25 mph 1002.2mb 59f 60f
7:06 18 24 mph 1002.1mb 59f 60f
7:00 20 24 mph 1002mb 59f 60f
6:54 16 20 mph 1001.9mb 59f 60f
6:48 15 20 mph 1001.8mb 59f 59f
6:42 15 20 mph 1001.5mb 59f 59f
6:36 16 22 mph 1001.4mb 59f 59f
6:30 18 22 mph 1001.5mb 59f 59f
6:24 18 22 mph 1001.3mb 59f 59f
6:18 15 20 mph 1000.9mb 59f 59f
6:12 17 21 mph 1000.7mb 59f 59f
6:06 15 23 mph 1000.3mb 59f 58f
6:00 20 25 mph 1000.9mb 59f 58f
5:54 18 25 mph 1000.8mb 59f 58f
5:48 20 25 mph 1001.1mb 59f 58f
5:42 21 29 mph 1001mb 59f 57f
5:36 29 36 mph 1001.1mb 59f 57f
5:30 31 37 mph 1001.1mb 59f 57f
5:24 33 40 mph 1001mb 59f 57f
5:18 22 25 mph 1000.4mb 59f 60f
5:12 20 24 mph 1000.3mb 59f 60f
5:06 22 28 mph 1000.1mb 59f 60f
5:00 18 24 mph 1000.2mb 59f 61f
4:54 20 24 mph 1000.3mb 59f 60f
4:48 22 28 mph - 59f 60f
4:42 21 28 mph - 59f 60f
4:36 23 28 mph - 59f 60f
4:30 22 25 mph 1000.1mb 59f 60f
4:24 18 22 mph 1000.1mb 59f 60f
4:18 22 25 mph 999.9mb 59f 59f
4:12 20 24 mph 999.8mb 59f 59f
4:06 20 23 mph 999.5mb 59f 62f
4:00 17 21 mph 999.6mb 59f 62f
3:54 21 24 mph 999.7mb 59f 62f
3:48 17 24 mph 999.8mb 59f 61f
3:42 17 21 mph 999.8mb 59f 61f
3:36 16 20 mph 999.8mb 59f 61f
3:30 14 17 mph 999.8mb 59f 60f
3:24 13 18 mph 999.8mb 59f 60f
3:18 15 18 mph 999.7mb 59f 59f
3:12 16 21 mph 999.7mb 59f 60f
3:06 15 18 mph 999.5mb 59f 60f
3:00 14 22 mph 999.4mb 59f 60f
2:54 21 28 mph 999.9mb 59f 60f
2:48 21 38 mph 1000.2mb 59f 59f
2:42 29 38 mph 1000.5mb 59f 58f
2:36 21 32 mph 1000.2mb 59f 59f
2:30 20 43 mph 1000.7mb 59f 60f
2:24 40 46 mph 1000.1mb 59f 60f
2:18 41 54 mph 999.9mb 59f 59f
2:12 40 48 mph 1000mb 59f 60f
2:06 33 44 mph 1000mb 59f 60f
2:00 31 39 mph 999.8mb 59f 59f
1:54 29 37 mph 999.9mb 59f 59f
1:48 36 45 mph 1000mb 59f 60f
1:42 31 44 mph 999.6mb 59f 59f
1:36 25 36 mph 999.7mb 59f 60f
1:30 26 41 mph 1000mb 59f 59f
1:24 32 41 mph 1000.2mb 59f 59f
1:18 31 41 mph 1000.4mb 59f 60f
1:12 30 39 mph 1000.6mb 59f 59f
1:06 30 45 mph 1000.6mb 59f 59f
1:00 24 34 mph 1000.9mb 59f 59f
12:54 28 36 mph 1001.1mb 59f 59f
12:48 31 40 mph 1001.2mb 59f 59f
12:42 21 33 mph 1001.6mb 59f 59f
12:36 30 36 mph 1002.1mb 59f 59f
12:30 28 37 mph 1002.3mb 59f 59f
12:24 28 34 mph 1002.5mb 59f 59f
12:18 24 33 mph 1002.6mb 59f 59f
12:12 26 32 mph 1002.7mb 59f 59f
12:06 25 38 mph 1003.1mb 59f 59f
12:00 28 37 mph 1003.4mb 59f 59f
11:54 26 33 mph 1003.5mb 59f 59f
11:48 25 32 mph 1003.9mb 59f 59f
11:42 23 31 mph 1004.3mb 59f 58f
11:36 21 29 mph 1004.4mb 59f 58f
11:30 24 32 mph 1005mb 59f 58f
11:24 18 23 mph 1005.4mb 59f 58f
11:18 21 29 mph 1005.7mb 59f 58f
11:12 23 29 mph 1006mb 59f 58f
11:06 20 30 mph 1006.5mb 59f 59f
11:00 25 33 mph 1007mb 59f 59f
10:54 22 29 mph 1007.4mb 59f 59f
10:48 24 32 mph 1007.4mb 59f 59f
10:42 21 32 mph 1007.6mb 59f 58f
10:36 17 24 mph 1007.9mb 59f 58f
10:30 17 26 mph 1008mb 59f 58f
10:24 18 24 mph 1007.6mb 59f 58f
10:18 18 24 mph 1007.8mb 59f 58f
10:12 17 23 mph 1008.1mb 59f 58f
10:06 17 23 mph 1008.4mb 59f 58f
10:00 18 25 mph 1008.3mb 59f 58f
9:54 17 23 mph 1008.7mb 59f 58f
9:48 15 18 mph 1009mb 59f 58f
9:42 17 26 mph 1008.8mb 59f 58f
9:36 21 25 mph 1008.6mb 59f 58f
9:30 16 23 mph 1008.8mb 59f 58f
9:24 18 24 mph 1008.8mb 59f 58f
9:18 20 25 mph 1009.1mb 59f 58f
9:06 17 23 mph 1009.3mb 59f 58f
9:00 14 18 mph 1009.1mb 59f 58f
8:54 11 17 mph 1008.9mb 59f 58f
8:48 13 18 mph 1009.1mb 59f 58f
8:42 16 18 mph 1009.2mb 59f 58f
8:36 17 21 mph 1009.5mb 59f 58f
8:30 14 16 mph 1009.3mb 59f 58f
8:24 15 17 mph 1009.4mb 59f 58f
8:18 10 15 mph 1009.5mb 59f 58f
8:12 14 20 mph 1009.3mb 59f 58f
8:06 14 17 mph 1009.7mb 59f 58f
8:00 7 11 mph 1009.7mb 59f 58f
7:54 10 17 mph 1009.6mb 59f 58f
7:48 13 18 mph 1010mb 59f 58f
7:42 14 20 mph 1009.8mb 59f 58f
7:36 14 17 mph 1009.7mb 59f 58f
7:30 11 16 mph 1009.4mb 59f 58f
7:24 11 15 mph 1009.4mb 59f 58f
7:18 13 15 mph 1009.3mb 59f 58f
7:12 11 16 mph 1009.3mb 59f 58f
7:06 15 17 mph 1009.5mb 59f 58f
7:00 15 23 mph 1009.7mb 59f 58f
6:54 16 22 mph 1009.8mb 59f 58f
6:48 20 22 mph 1009.8mb 59f 59f
6:42 18 22 mph 1009.8mb 59f 60f
6:36 17 21 mph 1009.7mb 59f 60f
6:30 18 23 mph 1009.9mb 59f 60f
6:24 17 21 mph 1010.1mb 59f 60f
6:18 13 17 mph 1010mb 59f 60f
6:12 5 6 mph 1010.1mb 59f 58f
6:06 3 5 mph 1010mb 59f 58f
6:00 2 3 mph 1009.9mb 59f 58f
5:54 2 5 mph 1009.8mb 59f 58f
5:48 5 6 mph 1009.5mb 59f 58f
5:42 2 5 mph 1009.6mb 58f 58f
5:36 2 5 mph 1009.5mb 58f 58f
5:30 5 7 mph 1009.3mb 58f 58f
5:24 3 5 mph 1009.3mb 58f 59f
5:18 3
mph
1009.1mb 59f 59f
5:12 3 6 mph 1009.2mb 59f 59f
5:06 5 6 mph 1009.3mb 59f 59f
5:00 6
mph
1009.8mb 59f 59f
4:54 6
mph
1009.8mb 59f 59f
4:48 3 5 mph 1009.9mb 59f 58f
4:42 5 6 mph 1009.8mb 59f 58f
4:36 6 7 mph 1009.8mb 59f 58f
4:30 5 7 mph 1010.1mb 59f 58f
4:24 6
mph
1010.2mb 59f 58f
4:18 5 6 mph 1010.1mb 59f 58f
4:12 5 6 mph 1010.1mb 59f 58f
4:06 5 6 mph 1010mb 59f 58f
4:00 5 6 mph 1010mb 59f 58f
3:54 3 7 mph 1010.1mb 59f 58f
3:48 5 6 mph 1010mb 59f 58f
3:42 5 6 mph 1010.1mb 59f 59f
3:36 5 6 mph 1010.1mb 59f 59f
3:30 5 6 mph 1010mb 59f 60f
3:24 5 8 mph 1010.3mb 59f 60f
3:18 7 8 mph 1010.5mb 59f 60f
3:12 8 10 mph 1010.7mb 59f 60f
3:06 10 13 mph 1011.1mb 59f 60f
3:00 13
mph
1011.3mb 59f 60f
2:54 10 14 mph 1011.1mb 59f 60f
2:48 13 14 mph 1011.3mb 59f 60f
2:42 11 14 mph 1011.5mb 59f 60f
2:36 14 15 mph 1011.8mb 59f 60f
2:30 14 17 mph 1012mb 59f 60f
2:24 15 17 mph 1012.1mb 59f 60f
2:18 8 9 mph 1012.1mb 59f 60f
2:12 8 10 mph 1012.1mb 59f 60f
2:06 8 10 mph 1012.1mb 59f 60f
2:00 10 13 mph 1012.1mb 59f 60f
1:54 9 10 mph 1012mb 59f 59f
1:48 7 8 mph 1012mb 59f 59f
1:42 6 8 mph 1011.9mb 59f 59f
1:36 8 9 mph 1011.9mb 59f 59f
1:30 7 10 mph 1011.8mb 59f 60f
1:24 10 13 mph 1011.8mb 59f 59f
1:18 13 16 mph 1011.7mb 59f 59f
1:12 14 18 mph 1011.9mb 59f 59f
1:06 20 23 mph 1012.1mb 59f 58f
1:00 21 24 mph 1012mb 59f 59f
12:54 3 6 mph 1012mb 59f 59f
12:48 6 7 mph 1011.7mb 59f 59f
12:42 6
mph
1011.8mb 59f 59f
12:36 6 7 mph 1011.9mb 59f 59f
12:30 5 7 mph 1012.1mb 59f 59f
12:24 6 7 mph 1012.1mb 59f 59f
12:18 7
mph
1012.1mb 59f 59f
12:12 6 7 mph 1012mb 59f 60f
12:06 6 7 mph 1012.2mb 59f 60f
12:00 6 8 mph 1012.4mb 59f 60f
jue 01/19 11:54 8 13 mph 1012.5mb 59f 60f
11:48 13 14 mph 1012.9mb 59f 60f
11:42 9 10 mph 1012.9mb 59f 61f
11:36 9 10 mph 1012.9mb 59f 61f
11:30 10 11 mph 1013mb 59f 61f
11:24 10 11 mph 1013.1mb 59f 61f
11:18 10 13 mph 1013.3mb 59f 61f
11:12 11 13 mph 1013.4mb 59f 61f
11:06 11 13 mph 1013.5mb 59f 61f
11:00 10 11 mph 1013.6mb 59f 61f
10:54 8 9 mph 1013.6mb 59f 61f
10:48 8 10 mph 1013.6mb 59f 61f
10:42 9
mph
1013.7mb 59f 61f
10:36 8 11 mph 1013.8mb 60f 61f
10:30 8 10 mph 1013.8mb 60f 61f
10:24 7 8 mph 1013.8mb 60f 61f
10:18 7 10 mph 1013.8mb 60f 61f
10:12 9
mph
1013.8mb 60f 60f
10:06 8 9 mph 1013.8mb 60f 61f
10:00 9 10 mph 1013.8mb 60f 60f
9:54 8 9 mph 1013.9mb 60f 60f
9:48 6 7 mph 1013.8mb 60f -
9:42 5 6 mph 1013.8mb 60f -
9:36 6
mph
1013.7mb 60f -
9:30 6 7 mph 1013.6mb 60f 59f
9:24 6 9 mph 1013.7mb 60f 59f
9:18 6
mph
1013.9mb 60f 59f
9:12 6
mph
1014mb 60f 59f
9:06 5 6 mph 1013.9mb 60f 59f
9:00 5 6 mph 1013.9mb 60f 59f
8:54 5 6 mph 1014mb 60f 59f
8:48 5 6 mph 1014mb 60f 59f
8:42 5 6 mph 1013.9mb 60f 58f
8:36 5 6 mph 1013.8mb 60f 58f
8:30 5 7 mph 1013.7mb 60f 58f
8:24 6
mph
1013.7mb 60f 58f
8:18 3 5 mph 1013.8mb 60f 58f
8:12 5
mph
1013.8mb 60f 58f
8:06 2 3 mph 1013.7mb 60f 58f
8:00 1 2 mph 1013.7mb 60f 58f
7:54 1 2 mph 1013.8mb 60f 59f
7:48 2 3 mph 1013.8mb 60f 59f
7:42 2 3 mph 1013.8mb 60f 59f
7:36 2
mph
1013.8mb 60f 59f
7:30 2 5 mph 1013.8mb 60f 59f
7:24 3 6 mph 1013.7mb 60f 59f
7:18 5 6 mph 1013.7mb 60f 59f
7:12 1 5 mph 1013.7mb 60f 59f
7:06 5 6 mph 1013.8mb 60f 59f
7:00 2 3 mph 1014mb 60f 60f
6:54 3 7 mph 1014.1mb 60f 60f
6:48 5 6 mph 1014.2mb 60f 61f
6:42 5 6 mph 1014.3mb 60f 60f
6:36 6 7 mph 1014.5mb 60f 61f
6:30 6
mph
1014.5mb 60f 61f
6:24 6 7 mph 1014.4mb 60f 61f
6:18 6 8 mph 1014.4mb 60f 61f
6:12 7
mph
1014.3mb 60f 61f
6:06 6 7 mph 1014.4mb 60f 61f
6:00 6 7 mph 1014.3mb 60f 61f
5:54 6 7 mph 1014.2mb 60f 61f
5:48 3 6 mph 1014.2mb 60f 61f
5:42 5 7 mph 1014.2mb 60f 61f
5:36 7 8 mph 1014mb 60f 61f
5:30 7 8 mph 1014mb 60f 61f
5:24 6 7 mph 1013.8mb 60f 60f
5:18 6 7 mph 1013.8mb 60f 61f
5:12 6 8 mph 1013.8mb 60f 61f
5:06 8 9 mph 1013.8mb 60f 61f
5:00 7 9 mph 1013.8mb 60f 61f
4:54 8 9 mph 1013.9mb 60f 61f
4:48 7 9 mph 1013.9mb 60f 61f
4:42 7 9 mph 1013.9mb 60f 61f
4:36 7 10 mph 1013.9mb 60f 61f
4:30 7 10 mph 1013.9mb 60f 61f
4:24 9 11 mph 1014mb 60f 61f
4:18 9 10 mph 1014mb 60f 61f
4:12 8 9 mph 1014.1mb 60f 61f
4:06 9 10 mph 1014.2mb 60f 61f
4:00 8 10 mph 1014.2mb 60f 62f
3:54 8 10 mph 1014.2mb 60f 62f
3:48 7 10 mph 1014.2mb 60f 61f
3:42 7 10 mph 1014.1mb 60f 61f
3:36 9 10 mph 1014.1mb 60f 61f
3:30 7 10 mph 1014.2mb 60f 62f
3:24 9 10 mph 1014.2mb 60f 61f
3:18 9 10 mph 1014.2mb 60f 61f
3:12 9 11 mph 1014.3mb 60f 61f
3:06 9 10 mph 1014.3mb 60f 61f
3:00 9 10 mph 1014.3mb 60f 62f
2:54 9 11 mph 1014.3mb 60f 62f
2:48 9 11 mph 1014.4mb 60f 62f
2:42 9 13 mph 1014.5mb 60f 62f
2:36 11 13 mph 1014.6mb 60f 61f
2:30 9 11 mph 1014.6mb 60f 62f
2:24 10 11 mph 1014.6mb 60f 62f
2:18 9 11 mph 1014.5mb 60f 62f
2:12 11 13 mph 1014.5mb 60f 62f
2:06 11 14 mph 1014.6mb 60f 62f
2:00 10 11 mph 1014.7mb 60f 62f
1:54 11 13 mph 1014.7mb 60f 62f
1:48 10 15 mph 1014.8mb 60f 63f
1:42 10 14 mph 1014.8mb 60f 62f
1:36 9 14 mph 1014.9mb 60f 62f
1:30 10 15 mph 1014.8mb 60f 62f
1:24 11 15 mph 1014.6mb 60f 62f
1:18 15 17 mph 1014.7mb 60f 62f
1:06 9 13 mph 1014.7mb 60f 62f
1:00 13 15 mph 1014.7mb 60f 62f
12:54 11 15 mph 1014.7mb 60f 62f
12:48 14 15 mph 1014.8mb 60f 62f
12:42 14 17 mph 1014.8mb 60f 62f
12:36 14 15 mph 1014.8mb 60f 62f
12:30 8 10 mph 1014.8mb 60f 62f
12:24 8 10 mph 1014.7mb 60f 62f
12:18 9 11 mph 1014.8mb 60f 62f
12:12 9 11 mph 1014.8mb 60f 62f
12:06 9 10 mph 1014.7mb 60f 62f
12:00 9 10 mph 1014.8mb 60f 62f
11:54 8 10 mph 1014.8mb 60f 62f
11:48 9 11 mph 1014.8mb 60f 62f
11:42 8 10 mph 1014.8mb 60f 62f
11:36 8 10 mph 1015mb 60f 62f
11:30 7 8 mph 1015.1mb 60f 62f
11:24 8 9 mph 1015.2mb 60f 62f
11:18 8 9 mph 1015.2mb 60f 62f
11:12 9 13 mph 1015.2mb 60f 62f
11:06 8 9 mph 1015.4mb 60f 62f
11:00 9 11 mph 1015.5mb 60f 62f
10:54 10 13 mph 1015.6mb 60f 62f
10:48 9 13 mph 1015.7mb 59f 62f
10:42 11 14 mph 1015.9mb 59f 62f
10:36 13 15 mph 1016.1mb 59f 62f
10:30 14 15 mph 1016.2mb 59f 62f
10:24 11 15 mph 1016.3mb 59f 62f
10:18 10 15 mph 1016.3mb 59f 62f
10:12 13 16 mph 1016.3mb 59f 62f
10:06 11 15 mph 1016.2mb 59f 62f
10:00 14 16 mph 1016.2mb 59f 62f
9:54 13 17 mph 1016.2mb 59f 62f
9:48 15 17 mph 1016.2mb 59f 62f
9:42 16 18 mph 1016.2mb 59f 62f
9:36 16 20 mph 1016.1mb 59f 62f
9:30 15 21 mph 1016.1mb 59f 62f
9:24 17 23 mph 1016.1mb 59f 62f
9:18 20 23 mph 1016mb 59f 62f
9:12 15 20 mph 1015.9mb 59f 61f
9:06 15 18 mph 1015.8mb 59f 61f
9:00 17 21 mph 1015.8mb 59f 61f
8:54 18 22 mph 1015.7mb 59f 61f
8:48 21 25 mph 1015.9mb 59f 61f
8:42 22 25 mph 1015.8mb 59f 60f
8:36 22 25 mph 1015.7mb 59f 60f
8:30 21 23 mph 1015.6mb 59f 60f
8:24 20 24 mph 1015.6mb 59f 60f
8:18 21 25 mph 1015.7mb 59f 60f
8:12 25 31 mph 1015.7mb 59f 60f
8:06 20 22 mph 1015.4mb 59f 60f
8:00 18 23 mph 1015.4mb 59f 60f
7:54 22 26 mph 1015.4mb 59f 60f
7:48 18 23 mph 1015.2mb 59f 60f
7:42 20 23 mph 1015.3mb 59f 59f
7:36 20 23 mph 1015.2mb 59f 60f
7:30 22 25 mph 1015.3mb 59f 59f
7:24 23 29 mph 1015.3mb 59f 60f
7:18 24 30 mph 1015.3mb 59f 60f
7:12 24 29 mph 1015.1mb 59f 60f
7:06 20 25 mph 1015.1mb 59f 60f
7:00 20 24 mph 1015.2mb 59f 60f
6:54 20 28 mph 1015.2mb 59f 60f
6:48 20 29 mph 1015.3mb 59f 60f
6:42 22 30 mph 1015.3mb 59f 60f
6:36 15 23 mph 1015.3mb 59f 60f
6:30 18 23 mph 1015.3mb 59f 60f
6:24 16 22 mph 1015.5mb 59f 60f
6:18 14 21 mph 1015.4mb 59f 60f
6:12 14 23 mph 1015.5mb 59f 60f
6:06 15 25 mph 1015.4mb 59f 60f
6:00 17 25 mph 1015.5mb 59f 59f
5:54 18 29 mph 1015.5mb 59f 59f
5:48 20 24 mph 1015.3mb 59f 59f
5:42 11 15 mph 1015.4mb 59f 59f
5:36 13 20 mph 1015.6mb 59f 59f
5:30 15 23 mph 1015.8mb 59f 59f
5:24 18 24 mph 1015.9mb 59f 59f
5:18 14 23 mph 1016.1mb 59f 59f
5:12 15 20 mph 1015.8mb 59f 59f
5:06 15 21 mph 1015.7mb 59f 59f
5:00 13 20 mph 1015.5mb 59f 59f
4:54 16 20 mph 1015.7mb 59f 59f
4:48 14 16 mph 1015.9mb 59f 59f
4:42 13 16 mph 1016mb 59f 59f
4:36 14 18 mph 1016.2mb 59f 59f
4:30 11 20 mph 1016.2mb 59f 59f
4:24 11 14 mph 1016.3mb 59f 59f
4:18 8 11 mph 1016.6mb 59f 60f
4:12 7 10 mph 1016.7mb 59f 60f
4:06 9 11 mph 1016.9mb 59f 60f
4:00 8 9 mph 1017mb 59f 60f
3:54 8 10 mph 1017mb 59f 60f
3:48 8 9 mph 1017.1mb 59f 60f
3:42 7 11 mph 1017mb 59f 60f
3:36 8 10 mph 1017.2mb 59f 60f
3:30 8 10 mph 1017.2mb 59f 60f
3:24 8 11 mph 1017.3mb 59f 60f
3:18 9 11 mph 1017.4mb 59f 60f
3:12 10 13 mph 1017.7mb 59f 60f
3:06 10 13 mph 1017.9mb 59f 60f
3:00 9 10 mph 1017.8mb 59f 60f
2:54 7 9 mph 1017.8mb 59f 60f
2:48 8 10 mph 1017.7mb 59f 60f
2:42 7 9 mph 1017.6mb 59f 60f
2:36 5 7 mph 1017.6mb 59f 60f
2:30 6 8 mph 1017.5mb 59f 60f
2:24 6 8 mph 1017.3mb 59f 59f
2:18 5 6 mph 1017.2mb 59f 59f
2:12 3 6 mph 1017.2mb 60f 59f
2:06 3 6 mph 1017.1mb 60f 58f
2:00 5 6 mph 1017.1mb 60f 58f
1:54 5 6 mph 1016.7mb 60f 58f
1:48 6 7 mph 1016.6mb 60f 58f
1:42 2 3 mph 1016.6mb 60f 58f
1:36 2 6 mph 1016.5mb 60f 58f
1:30 7 10 mph 1016.2mb 60f 58f
1:24 9 13 mph 1016.2mb 60f 58f
1:18 8 9 mph 1016.2mb 60f 58f
1:12 8 11 mph 1016mb 60f 58f
1:06 8 10 mph 1015.8mb 60f 58f
1:00 6 15 mph 1015.5mb 60f 58f
12:54 11 17 mph 1015.4mb 60f 58f
12:48 14 17 mph 1015.5mb 59f 58f
12:42 14 18 mph 1015.6mb 59f 58f
12:36 11 17 mph 1015.6mb 59f 58f
12:30 13 18 mph 1015.6mb 59f 58f
12:24 15 18 mph 1015.8mb 59f 58f
12:18 15 20 mph 1016mb 59f 58f
12:12 13 18 mph 1016.2mb 59f 58f
12:06 14 17 mph 1016.4mb 59f 58f
12:00 14 18 mph 1016.7mb 60f 58f
mié 01/18 11:54 13 15 mph 1016.8mb 60f 58f
11:48 8 16 mph 1017.2mb 60f 58f
11:42 13 17 mph 1017.2mb 60f 58f
11:36 11 16 mph 1017.6mb 60f 58f
11:30 14 17 mph 1017.8mb 60f 58f
11:24 11 14 mph 1017.9mb 60f 58f
11:18 9 16 mph 1018.2mb 60f 58f
11:12 13 16 mph 1017.8mb 60f 58f
11:06 14 18 mph 1017.8mb 60f 58f
11:00 9 11 mph 1018.4mb 60f 58f
10:54 9 14 mph 1018.4mb 60f 58f
10:48 9 14 mph 1018.4mb 60f 58f
10:42 10 14 mph 1018.4mb 60f 58f
10:36 8 10 mph 1018.5mb 60f 58f
10:30 7 11 mph 1018.7mb 60f 58f
10:24 8 10 mph 1019mb 60f 58f
10:18 7 8 mph 1019.3mb 60f 58f
10:12 7 8 mph 1019.5mb 60f 58f
10:06 6 8 mph 1019.8mb 60f 58f
10:00 7 9 mph 1019.8mb 60f 58f
9:54 7 8 mph 1019.9mb 60f 58f
9:48 7 9 mph 1020mb - -
9:42 7 8 mph 1020.1mb - -
9:36 7 8 mph 1020.2mb - -
9:30 7 9 mph 1020.2mb 60f 58f
9:24 7 10 mph 1020.2mb 60f 58f
9:18 7 8 mph 1020.2mb 60f 58f
9:12 6 8 mph 1020.1mb 60f 59f
9:06 7
mph
1020.1mb 60f 59f
9:00 6 7 mph 1020.3mb 60f 59f
8:54 6 7 mph 1020.3mb 60f 59f
8:48 5 6 mph 1020.5mb 60f 59f
8:42 6 7 mph 1020.7mb 60f 60f
8:36 2 5 mph 1020.8mb 60f 60f
8:30 5 6 mph 1021mb 60f 60f
8:24 5 6 mph 1021.1mb 60f 60f
8:18 3 5 mph 1021mb 60f 60f
8:12 3 5 mph 1021mb 60f 60f
8:06 3 6 mph 1021.1mb 60f 60f
8:00 3 5 mph 1021.3mb 60f 60f
7:54 2 3 mph 1021.1mb 60f 60f
7:48  -  2 mph 1021mb 60f 60f
7:42 5 7 mph 1021mb 60f 60f
7:36 6 7 mph 1021.1mb 60f 60f
7:30 6 7 mph 1021.1mb 60f 60f
7:24 5 6 mph 1021mb 60f 60f
7:18 6 8 mph 1021.1mb 60f 60f
7:12 7 8 mph 1021.2mb 60f 60f
7:06 6 8 mph 1021.3mb 60f 60f
7:00 8 9 mph 1021.3mb 60f 60f
6:54 7 8 mph 1021.2mb 60f 60f
6:48 7 10 mph 1021.3mb 60f 60f
6:42 9 11 mph 1021.4mb 60f 60f
6:36 9 11 mph 1021.4mb 60f 60f
6:30 10 13 mph 1021.4mb 60f 60f
6:24 9 11 mph 1021.3mb 60f 60f
6:18 9 13 mph 1021.2mb 60f 60f
6:12 11 14 mph 1021.2mb 60f 60f
6:06 11 14 mph 1021.2mb 60f 60f
6:00 11 15 mph 1021.1mb 60f 60f
5:54 13 15 mph 1021.1mb 60f 60f
5:48 11 15 mph 1021mb 60f 60f
5:42 13 14 mph 1020.9mb 60f 60f
5:36 11 15 mph 1020.8mb 60f 60f
5:30 13 14 mph 1020.8mb 60f 60f
5:24 11 14 mph 1020.7mb 60f 60f
5:18 10 11 mph 1020.6mb 60f 60f
5:12 9 13 mph 1020.5mb 60f 60f
5:06 11 13 mph 1020.4mb 60f 60f
5:00 10 11 mph 1020.4mb 60f 60f
4:54 9 10 mph 1020.3mb 60f 60f
4:48 9 10 mph 1020.3mb 60f 60f
4:42 10 13 mph 1020.2mb 60f 60f
4:36 9 11 mph 1020.3mb 60f 60f
4:30 10 13 mph 1020.3mb 60f 60f
4:24 11 13 mph 1020.3mb 60f 60f
4:18 9 11 mph 1020.3mb 60f 60f
4:12 10 11 mph 1020.3mb 60f 60f
4:06 11 14 mph 1020.3mb 60f 60f
4:00 11 14 mph 1020.3mb 60f 60f
3:54 11 13 mph 1020.3mb 60f 60f
3:48 7 10 mph 1020.2mb 60f 60f
3:42 8 10 mph 1020.1mb 60f 60f
3:36 8 10 mph 1020mb 60f 60f
3:30 7 9 mph 1019.9mb 60f 60f
3:24 5 7 mph 1019.7mb 60f 61f
3:18 6 7 mph 1019.6mb 60f 61f
3:12 6 7 mph 1019.6mb 60f 61f
3:06 5 7 mph 1019.5mb 60f 61f
3:00 6 7 mph 1019.6mb 60f 60f